Pagrindinis puslapis
METAR-TAF:

METAR-TAF

Oro uostai :

Ndžamena, Čadas

platuma: 12-08N, ilguma: 015-02E, Aukštis: 295 m

Dabartinis oras

Ataskaita buvo paskelbta 48 minutes, ne 22:00 UTC
Vėjas 9 kt iš Šiaurės
Temperatūra 27°C
Drėgmė 14%
Slėgis 1012 hPa
Matomumas 10 km arba daugiau
nėra debesų žemiau 1500 m ir nėra kamuolinių lietaus debesų

METAR: FTTJ 212200Z 36009KT CAVOK 27/M03 Q1012 NOSIG

Laikas: 23:48 (22:48 UTC)

Prognozė

Ataskaita buvo paskelbta 5 valandos ir 48 minutes, ne 17:00 UTC
Prognozė galioja nuo 21 metu 18 UTC su 22 metu 24 UTC
Vėjas 10 kt iš Šiaurės
Matomumas: 7000 m
Laikinai
nuo 21 metu 22 UTC su 22 metu 04 UTC
Matomumas: 4000 m
dulkės

TAF: FTTJ 211700Z 2118/2224 36010KT 7000 NSC TEMPO 2122/2204 4000 DU

Orai ataskaitas ir orų prognozės (METAR, TAF).

turimą stotys yra geltonos ir raudonos taškus žemėlapyje.

Perkelti pele per norėdami pamatyti stoties vardą.

Tada spustelėkite, norėdami matyti oro stebėjimo ir prognozės.

Norėdami pakeisti žemėlapį: spustelėkite ant žalios mygtukų su juodo kryžiaus žemyn,; žalią mygtuką su brūkšneliu, jei norite nutolinti; arba žalių rodyklių gretimoms žemėlapius.


METAR-TAF: